createdAt,value
2023-08-14T00:00:01.394Z,28.94
2023-08-14T00:00:31.463Z,28.91
2023-08-14T00:01:01.579Z,28.93
2023-08-14T00:01:31.736Z,28.91
2023-08-14T00:02:01.742Z,28.93
2023-08-14T00:02:31.816Z,28.89
2023-08-14T00:03:02.022Z,28.89
2023-08-14T00:03:32.053Z,28.89
2023-08-14T00:04:02.175Z,28.90
2023-08-14T00:04:32.185Z,28.91
2023-08-14T00:05:02.299Z,28.89
2023-08-14T00:05:32.408Z,28.90
2023-08-14T00:06:02.545Z,28.91
2023-08-14T00:06:32.530Z,28.91
2023-08-14T00:07:02.640Z,28.91
2023-08-14T00:07:32.632Z,28.91
2023-08-14T00:08:02.772Z,28.87
2023-08-14T00:08:32.863Z,28.89
2023-08-14T00:09:02.975Z,28.89
2023-08-14T00:09:33.092Z,28.87
2023-08-14T00:10:03.216Z,28.90
2023-08-14T00:10:33.324Z,28.89
2023-08-14T00:11:03.320Z,28.89
2023-08-14T00:11:33.434Z,28.89
2023-08-14T00:12:03.544Z,28.89
2023-08-14T00:12:33.657Z,28.89
2023-08-14T00:13:03.779Z,28.87
2023-08-14T00:13:33.890Z,28.87
2023-08-14T00:14:04.004Z,28.87
2023-08-14T00:14:34.123Z,28.89
2023-08-14T00:15:04.140Z,28.87
2023-08-14T00:15:34.198Z,28.89
2023-08-14T00:16:04.270Z,28.89
2023-08-14T00:16:34.252Z,28.87
2023-08-14T00:17:04.354Z,28.89
2023-08-14T00:17:34.506Z,28.89
2023-08-14T00:18:04.539Z,28.86
2023-08-14T00:18:34.553Z,28.86
2023-08-14T00:19:04.606Z,28.86
2023-08-14T00:19:34.626Z,28.86
2023-08-14T00:20:04.621Z,28.87
2023-08-14T00:20:34.612Z,28.89
2023-08-14T00:21:04.633Z,28.89
2023-08-14T00:21:34.757Z,28.90
2023-08-14T00:22:04.877Z,28.91
2023-08-14T00:22:34.974Z,28.87
2023-08-14T00:23:04.967Z,28.87
2023-08-14T00:23:35.099Z,28.87
2023-08-14T00:24:05.196Z,28.85
2023-08-14T00:24:35.326Z,28.86
2023-08-14T00:25:05.316Z,28.87
2023-08-14T00:25:35.430Z,28.86
2023-08-14T00:26:05.540Z,28.87
2023-08-14T00:26:35.672Z,28.87
2023-08-14T00:27:05.772Z,28.87
2023-08-14T00:27:35.892Z,28.89
2023-08-14T00:28:06.002Z,28.87
2023-08-14T00:28:36.145Z,28.89
2023-08-14T00:29:06.239Z,28.87
2023-08-14T00:29:36.356Z,28.86
2023-08-14T00:30:06.345Z,28.86
2023-08-14T00:30:36.454Z,28.86
2023-08-14T00:31:06.600Z,28.86
2023-08-14T00:31:36.652Z,28.85
2023-08-14T00:32:06.642Z,28.85
2023-08-14T00:32:36.789Z,28.87
2023-08-14T00:33:06.842Z,28.89
2023-08-14T00:33:36.887Z,28.86
2023-08-14T00:34:06.880Z,28.86
2023-08-14T00:34:37.004Z,28.86
2023-08-14T00:35:07.110Z,28.85
2023-08-14T00:35:37.224Z,28.85
2023-08-14T00:36:07.389Z,28.87
2023-08-14T00:36:37.272Z,28.89
2023-08-14T00:37:07.381Z,28.86
2023-08-14T00:37:37.502Z,28.86
2023-08-14T00:38:07.623Z,28.85
2023-08-14T00:38:37.651Z,28.85
2023-08-14T00:39:37.681Z,28.85
2023-08-14T00:40:07.798Z,28.85
2023-08-14T00:40:37.916Z,28.85
2023-08-14T00:41:07.915Z,28.86
2023-08-14T00:41:38.031Z,28.86
2023-08-14T00:42:08.144Z,28.86
2023-08-14T00:42:38.301Z,28.86
2023-08-14T00:43:08.286Z,28.86
2023-08-14T00:43:38.265Z,28.86
2023-08-14T00:44:38.349Z,28.85
2023-08-14T00:45:08.487Z,28.85
2023-08-14T00:45:46.478Z,28.83
2023-08-14T00:46:08.639Z,28.83
2023-08-14T00:46:38.669Z,28.83
2023-08-14T00:47:08.661Z,28.82
2023-08-14T00:47:38.923Z,28.85
2023-08-14T00:48:08.907Z,28.85
2023-08-14T00:48:38.886Z,28.86
2023-08-14T00:49:09.013Z,28.86
2023-08-14T00:49:39.123Z,28.83
2023-08-14T00:50:09.228Z,28.85
2023-08-14T00:50:39.337Z,28.85
2023-08-14T00:51:09.329Z,28.85
2023-08-14T00:51:39.440Z,28.85
2023-08-14T00:52:09.578Z,28.85
2023-08-14T00:53:17.240Z,28.80
2023-08-14T00:53:47.214Z,28.83
2023-08-14T00:54:17.262Z,28.82
2023-08-14T00:54:47.382Z,28.83
2023-08-14T00:55:17.451Z,28.82
2023-08-14T00:55:47.533Z,28.80
2023-08-14T00:56:17.602Z,28.83
2023-08-14T00:56:47.703Z,28.85
2023-08-14T00:57:17.752Z,28.85
2023-08-14T00:57:47.823Z,28.85
2023-08-14T00:58:17.902Z,28.80
2023-08-14T00:58:47.968Z,28.83
2023-08-14T00:59:18.033Z,28.82
2023-08-14T00:59:48.112Z,28.82
2023-08-14T01:00:18.190Z,28.82
2023-08-14T01:00:48.302Z,28.82
2023-08-14T01:01:18.315Z,28.82
2023-08-14T01:01:48.433Z,28.82
2023-08-14T01:02:18.797Z,28.80
2023-08-14T01:02:48.619Z,28.83
2023-08-14T01:03:18.671Z,28.83
2023-08-14T01:03:48.653Z,28.83
2023-08-14T01:04:18.760Z,28.82
2023-08-14T01:04:48.872Z,28.83
2023-08-14T01:05:18.984Z,28.80
2023-08-14T01:05:49.104Z,28.82
2023-08-14T01:06:19.216Z,28.80
2023-08-14T01:06:49.207Z,28.82
2023-08-14T01:07:19.312Z,28.83
2023-08-14T01:07:49.442Z,28.83
2023-08-14T01:08:19.541Z,28.82
2023-08-14T01:08:49.763Z,28.82
2023-08-14T01:09:19.736Z,28.80
2023-08-14T01:09:49.846Z,28.83
2023-08-14T01:10:19.977Z,28.82
2023-08-14T01:10:50.071Z,28.82
2023-08-14T01:11:20.189Z,28.82
2023-08-14T01:11:50.308Z,28.83
2023-08-14T01:12:20.416Z,28.82
2023-08-14T01:12:50.531Z,28.83
2023-08-14T01:13:20.642Z,28.80
2023-08-14T01:13:50.762Z,28.82
2023-08-14T01:14:20.873Z,28.80
2023-08-14T01:14:50.981Z,28.82
2023-08-14T01:15:21.113Z,28.79
2023-08-14T01:15:51.096Z,28.82
2023-08-14T01:16:21.246Z,28.83
2023-08-14T01:16:51.279Z,28.83
2023-08-14T01:17:21.293Z,28.82
2023-08-14T01:17:51.427Z,28.83
2023-08-14T01:18:21.420Z,28.82
2023-08-14T01:18:51.527Z,28.79
2023-08-14T01:19:21.643Z,28.82
2023-08-14T01:19:51.747Z,28.83
2023-08-14T01:20:21.882Z,28.82
2023-08-14T01:20:51.866Z,28.83
2023-08-14T01:21:21.980Z,28.83
2023-08-14T01:21:52.126Z,28.82
2023-08-14T01:22:22.193Z,28.82
2023-08-14T01:22:52.106Z,28.82
2023-08-14T01:23:22.266Z,28.82
2023-08-14T01:23:52.261Z,28.82
2023-08-14T01:24:22.351Z,28.82
2023-08-14T01:24:52.469Z,28.80
2023-08-14T01:25:22.582Z,28.80
2023-08-14T01:25:52.702Z,28.80
2023-08-14T01:26:22.800Z,28.80
2023-08-14T01:26:52.936Z,28.83
2023-08-14T01:27:22.913Z,28.79
2023-08-14T01:27:53.032Z,28.82
2023-08-14T01:28:23.141Z,28.79
2023-08-14T01:28:53.244Z,28.82
2023-08-14T01:29:23.370Z,28.82
2023-08-14T01:29:53.361Z,28.82
2023-08-14T01:30:23.582Z,28.82
2023-08-14T01:30:53.552Z,28.80
2023-08-14T01:31:23.574Z,28.82
2023-08-14T01:31:53.600Z,28.79
2023-08-14T01:32:23.593Z,28.82
2023-08-14T01:32:53.898Z,28.82
2023-08-14T01:33:23.803Z,28.77
2023-08-14T01:33:53.862Z,28.80
2023-08-14T01:34:23.839Z,28.79
2023-08-14T01:34:53.915Z,28.79
2023-08-14T01:35:23.880Z,28.80
2023-08-14T01:35:53.995Z,28.82
2023-08-14T01:36:24.101Z,28.80
2023-08-14T01:36:54.214Z,28.79
2023-08-14T01:37:24.676Z,28.80
2023-08-14T01:37:54.422Z,28.80
2023-08-14T01:38:24.537Z,28.80
2023-08-14T01:38:54.678Z,28.80
2023-08-14T01:39:24.637Z,28.80
2023-08-14T01:39:54.754Z,28.79
2023-08-14T01:40:24.902Z,28.77
2023-08-14T01:40:54.957Z,28.80
2023-08-14T01:41:24.957Z,28.80
2023-08-14T01:41:55.063Z,28.80
2023-08-14T01:42:25.079Z,28.79
2023-08-14T01:42:55.194Z,28.79
2023-08-14T01:43:25.320Z,28.80
2023-08-14T01:43:55.425Z,28.79
2023-08-14T01:44:25.571Z,28.82
2023-08-14T01:44:55.577Z,28.82
2023-08-14T01:45:25.715Z,28.82
2023-08-14T01:45:55.742Z,28.80
2023-08-14T01:46:25.760Z,28.80
2023-08-14T01:46:55.750Z,28.82
2023-08-14T01:47:25.902Z,28.80
2023-08-14T01:47:55.947Z,28.82
2023-08-14T01:48:25.916Z,28.82
2023-08-14T01:48:56.027Z,28.82
2023-08-14T01:49:26.150Z,28.80
2023-08-14T01:49:56.250Z,28.82
2023-08-14T01:50:26.370Z,28.82
2023-08-14T01:50:56.502Z,28.82
2023-08-14T01:51:26.603Z,28.80
2023-08-14T01:51:56.702Z,28.79
2023-08-14T01:52:26.811Z,28.82
2023-08-14T01:52:56.929Z,28.82
2023-08-14T01:53:26.996Z,28.83
2023-08-14T01:53:57.094Z,28.79
2023-08-14T01:54:27.164Z,28.80
2023-08-14T01:54:57.151Z,28.82
2023-08-14T01:55:27.246Z,28.79
2023-08-14T01:55:57.300Z,28.80
2023-08-14T01:56:27.375Z,28.80
2023-08-14T01:56:57.448Z,28.80
2023-08-14T01:57:27.544Z,28.82
2023-08-14T01:57:57.628Z,28.82
2023-08-14T01:58:27.707Z,28.82
2023-08-14T01:58:57.785Z,28.82
2023-08-14T01:59:27.863Z,28.80
2023-08-14T01:59:57.934Z,28.85
2023-08-14T02:00:28.012Z,28.82
2023-08-14T02:00:58.081Z,28.82
2023-08-14T02:01:28.268Z,28.83
2023-08-14T02:01:58.215Z,28.79
2023-08-14T02:02:28.392Z,28.85
2023-08-14T02:02:58.390Z,28.83
2023-08-14T02:03:28.430Z,28.83
2023-08-14T02:03:58.453Z,28.80
2023-08-14T02:04:28.427Z,28.79
2023-08-14T02:04:58.539Z,28.83
2023-08-14T02:05:28.651Z,28.79
2023-08-14T02:05:58.671Z,28.85
2023-08-14T02:06:28.806Z,28.83
2023-08-14T02:06:58.799Z,28.83
2023-08-14T02:07:28.913Z,28.83
2023-08-14T02:07:59.048Z,28.83
2023-08-14T02:08:29.138Z,28.82
2023-08-14T02:08:59.255Z,28.83
2023-08-14T02:09:29.392Z,28.80
2023-08-14T02:09:59.369Z,28.82
2023-08-14T02:10:29.480Z,28.82
2023-08-14T02:10:59.488Z,28.82
2023-08-14T02:11:29.497Z,28.80
2023-08-14T02:11:59.482Z,28.82
2023-08-14T02:12:29.599Z,28.80
2023-08-14T02:12:59.709Z,28.83
2023-08-14T02:13:29.832Z,28.80
2023-08-14T02:13:59.945Z,28.80
2023-08-14T02:14:30.064Z,28.82
2023-08-14T02:15:00.175Z,28.79
2023-08-14T02:15:30.280Z,28.80
2023-08-14T02:16:00.468Z,28.82
2023-08-14T02:16:30.464Z,28.80
2023-08-14T02:17:00.447Z,28.82
2023-08-14T02:17:30.577Z,28.80
2023-08-14T02:18:00.617Z,28.79
2023-08-14T02:18:30.628Z,28.80
2023-08-14T02:19:00.740Z,28.79
2023-08-14T02:19:30.866Z,28.80
2023-08-14T02:20:00.981Z,28.79
2023-08-14T02:20:31.093Z,28.80
2023-08-14T02:21:01.098Z,28.77
2023-08-14T02:21:31.195Z,28.80
2023-08-14T02:22:01.313Z,28.80
2023-08-14T02:22:31.428Z,28.79
2023-08-14T02:23:01.551Z,28.79
2023-08-14T02:23:31.539Z,28.79
2023-08-14T02:24:01.648Z,28.79
2023-08-14T02:24:31.755Z,28.77
2023-08-14T02:25:01.996Z,28.77
2023-08-14T02:25:31.960Z,28.77
2023-08-14T02:26:32.063Z,28.77
2023-08-14T02:27:02.167Z,28.77
2023-08-14T02:27:32.271Z,28.77
2023-08-14T02:28:02.383Z,28.77
2023-08-14T02:28:32.538Z,28.76
2023-08-14T02:29:02.521Z,28.79
2023-08-14T02:29:32.636Z,28.76
2023-08-14T02:30:02.753Z,28.75
2023-08-14T02:30:32.883Z,28.76
2023-08-14T02:31:02.898Z,28.77
2023-08-14T02:32:02.970Z,28.77
2023-08-14T02:32:33.115Z,28.76
2023-08-14T02:33:03.153Z,28.75
2023-08-14T02:33:33.146Z,28.76
2023-08-14T02:34:03.244Z,28.75
2023-08-14T02:34:33.372Z,28.77
2023-08-14T02:35:03.358Z,28.75
2023-08-14T02:35:33.476Z,28.73
2023-08-14T02:36:03.590Z,28.75
2023-08-14T02:36:33.693Z,28.75
2023-08-14T02:37:03.804Z,28.76
2023-08-14T02:37:33.935Z,28.75
2023-08-14T02:38:04.034Z,28.75
2023-08-14T02:38:34.147Z,28.75
2023-08-14T02:39:04.260Z,28.75
2023-08-14T02:39:34.384Z,28.75
2023-08-14T02:40:04.482Z,28.75
2023-08-14T02:40:34.446Z,28.75
2023-08-14T02:41:04.559Z,28.75
2023-08-14T02:41:34.674Z,28.75
2023-08-14T02:42:04.782Z,28.73
2023-08-14T02:42:34.904Z,28.76
2023-08-14T02:43:05.019Z,28.72
2023-08-14T02:43:35.172Z,28.76
2023-08-14T02:44:05.213Z,28.75
2023-08-14T02:44:35.212Z,28.75
2023-08-14T02:45:05.201Z,28.75
2023-08-14T02:45:35.382Z,28.75
2023-08-14T02:46:05.471Z,28.75
2023-08-14T02:46:35.446Z,28.75
2023-08-14T02:47:05.563Z,28.75
2023-08-14T02:47:35.743Z,28.76
2023-08-14T02:48:05.802Z,28.75
2023-08-14T02:48:35.843Z,28.75
2023-08-14T02:49:05.821Z,28.72
2023-08-14T02:49:35.932Z,28.76
2023-08-14T02:50:06.039Z,28.72
2023-08-14T02:50:36.040Z,28.75
2023-08-14T02:51:06.046Z,28.75
2023-08-14T02:51:36.157Z,28.73
2023-08-14T02:52:06.273Z,28.75
2023-08-14T02:52:36.389Z,28.73
2023-08-14T02:53:06.465Z,28.75
2023-08-14T02:53:36.574Z,28.73
2023-08-14T02:54:06.642Z,28.75
2023-08-14T02:54:36.718Z,28.72
2023-08-14T02:55:06.789Z,28.73
2023-08-14T02:55:37.025Z,28.75
2023-08-14T02:56:06.953Z,28.73
2023-08-14T02:57:07.074Z,28.73
2023-08-14T02:57:37.144Z,28.73
2023-08-14T02:58:07.222Z,28.76
2023-08-14T02:58:37.299Z,28.73
2023-08-14T02:59:07.373Z,28.75
2023-08-14T02:59:37.450Z,28.72
2023-08-14T03:00:07.527Z,28.75
2023-08-14T03:00:37.603Z,28.70
2023-08-14T03:01:07.689Z,28.75
2023-08-14T03:01:37.752Z,28.75
2023-08-14T03:02:07.904Z,28.72
2023-08-14T03:02:38.032Z,28.75
2023-08-14T03:03:08.064Z,28.73
2023-08-14T03:03:38.128Z,28.70
2023-08-14T03:04:08.148Z,28.72
2023-08-14T03:04:38.257Z,28.75
2023-08-14T03:05:08.378Z,28.73
2023-08-14T03:05:38.489Z,28.72
2023-08-14T03:06:08.603Z,28.72
2023-08-14T03:06:38.708Z,28.73
2023-08-14T03:07:08.822Z,28.70
2023-08-14T03:07:38.957Z,28.73
2023-08-14T03:08:08.945Z,28.73
2023-08-14T03:08:39.053Z,28.75
2023-08-14T03:09:09.182Z,28.70
2023-08-14T03:09:39.204Z,28.72
2023-08-14T03:10:09.318Z,28.72
2023-08-14T03:10:39.427Z,28.73
2023-08-14T03:11:09.644Z,28.72
2023-08-14T03:11:39.606Z,28.72
2023-08-14T03:12:09.726Z,28.72
2023-08-14T03:12:39.849Z,28.75
2023-08-14T03:13:09.833Z,28.73
2023-08-14T03:13:39.948Z,28.73
2023-08-14T03:14:10.057Z,28.72
2023-08-14T03:14:40.183Z,28.72
2023-08-14T03:15:10.286Z,28.70
2023-08-14T03:15:40.406Z,28.70
2023-08-14T03:16:10.525Z,28.75
2023-08-14T03:16:40.706Z,28.72
2023-08-14T03:17:10.597Z,28.75
2023-08-14T03:17:40.734Z,28.73
2023-08-14T03:18:10.705Z,28.72
2023-08-14T03:18:40.821Z,28.72
2023-08-14T03:19:10.931Z,28.70
2023-08-14T03:19:41.047Z,28.70
2023-08-14T03:20:11.168Z,28.73
2023-08-14T03:20:41.084Z,28.72
2023-08-14T03:21:11.201Z,28.65
2023-08-14T03:21:41.315Z,28.65
2023-08-14T03:22:11.430Z,28.67
2023-08-14T03:22:41.548Z,28.65
2023-08-14T03:23:11.658Z,28.66
2023-08-14T03:23:41.768Z,28.65
2023-08-14T03:24:11.890Z,28.66
2023-08-14T03:24:41.993Z,28.66
2023-08-14T03:25:12.115Z,28.69
2023-08-14T03:25:42.259Z,28.66
2023-08-14T03:26:12.353Z,28.66
2023-08-14T03:26:42.321Z,28.66
2023-08-14T03:27:42.412Z,28.69
2023-08-14T03:28:12.402Z,28.69
2023-08-14T03:28:42.524Z,28.69
2023-08-14T03:29:12.514Z,28.70
2023-08-14T03:29:42.628Z,28.69
2023-08-14T03:30:12.751Z,28.69
2023-08-14T03:30:42.887Z,28.66
2023-08-14T03:31:12.887Z,28.69
2023-08-14T03:31:42.963Z,28.67
2023-08-14T03:32:12.991Z,28.70
2023-08-14T03:32:43.150Z,28.72
2023-08-14T03:33:13.126Z,28.72
2023-08-14T03:33:43.177Z,28.70
2023-08-14T03:34:13.307Z,28.72
2023-08-14T03:34:43.361Z,28.73
2023-08-14T03:35:13.484Z,28.73
2023-08-14T03:35:43.470Z,28.73
2023-08-14T03:36:13.588Z,28.75
2023-08-14T03:36:43.707Z,28.72
2023-08-14T03:37:13.760Z,28.72
2023-08-14T03:37:43.883Z,28.72
2023-08-14T03:38:14.022Z,28.73
2023-08-14T03:38:43.997Z,28.72
2023-08-14T03:39:14.116Z,28.70
2023-08-14T03:39:44.245Z,28.73
2023-08-14T03:40:14.231Z,28.73
2023-08-14T03:40:44.345Z,28.70
2023-08-14T03:41:14.464Z,28.73
2023-08-14T03:41:44.593Z,28.70
2023-08-14T03:42:14.666Z,28.73
2023-08-14T03:42:44.781Z,28.75
2023-08-14T03:43:14.779Z,28.73
2023-08-14T03:43:44.892Z,28.70
2023-08-14T03:44:15.085Z,28.70
2023-08-14T03:44:45.062Z,28.72
2023-08-14T03:45:15.176Z,28.72
2023-08-14T03:45:45.287Z,28.73
2023-08-14T03:46:15.457Z,28.72
2023-08-14T03:46:45.486Z,28.73
2023-08-14T03:47:15.487Z,28.73
2023-08-14T03:47:45.656Z,28.72
2023-08-14T03:48:15.621Z,28.69
2023-08-14T03:48:45.748Z,28.67
2023-08-14T03:49:15.862Z,28.66
2023-08-14T03:49:45.882Z,28.67
2023-08-14T03:50:15.998Z,28.66
2023-08-14T03:50:45.994Z,28.66
2023-08-14T03:51:16.102Z,28.66
2023-08-14T03:51:46.216Z,28.66
2023-08-14T03:52:16.577Z,28.69
2023-08-14T03:52:46.240Z,28.69
2023-08-14T03:53:16.315Z,28.67
2023-08-14T03:53:46.463Z,28.70
2023-08-14T03:54:16.420Z,28.70
2023-08-14T03:55:16.446Z,28.70
2023-08-14T03:55:46.529Z,28.72
2023-08-14T03:56:16.592Z,28.72
2023-08-14T03:56:46.668Z,28.73
2023-08-14T03:57:16.811Z,28.70
2023-08-14T03:57:46.867Z,28.72
2023-08-14T03:58:16.971Z,28.73
2023-08-14T03:58:47.047Z,28.73
2023-08-14T03:59:17.125Z,28.73
2023-08-14T03:59:49.578Z,28.73
2023-08-14T04:00:17.311Z,28.75
2023-08-14T04:00:47.389Z,28.76
2023-08-14T04:01:17.469Z,28.73
2023-08-14T04:01:47.620Z,28.77
2023-08-14T04:02:17.976Z,28.76
2023-08-14T04:02:47.818Z,28.75
2023-08-14T04:03:17.868Z,28.77
2023-08-14T04:03:47.988Z,28.77
2023-08-14T04:04:17.968Z,28.77
2023-08-14T04:04:47.976Z,28.77
2023-08-14T04:05:18.093Z,28.75
2023-08-14T04:05:48.198Z,28.77
2023-08-14T04:06:18.341Z,28.77
2023-08-14T04:06:48.408Z,28.77
2023-08-14T04:07:18.439Z,28.79
2023-08-14T04:07:48.565Z,28.76
2023-08-14T04:08:18.556Z,28.77
2023-08-14T04:08:48.665Z,28.75
2023-08-14T04:09:18.776Z,28.77
2023-08-14T04:09:48.898Z,28.75
2023-08-14T04:10:19.008Z,28.75
2023-08-14T04:10:49.111Z,28.76
2023-08-14T04:11:19.226Z,28.73
2023-08-14T04:11:49.330Z,28.73
2023-08-14T04:12:19.738Z,28.73
2023-08-14T04:12:49.538Z,28.76
2023-08-14T04:13:19.651Z,28.75
2023-08-14T04:13:49.772Z,28.75
2023-08-14T04:14:19.875Z,28.73
2023-08-14T04:14:49.990Z,28.73
2023-08-14T04:15:19.993Z,28.72
2023-08-14T04:15:50.098Z,28.67
2023-08-14T04:16:20.212Z,28.65
2023-08-14T04:16:50.398Z,28.67
2023-08-14T04:17:20.369Z,28.70
2023-08-14T04:17:50.496Z,28.70
2023-08-14T04:18:20.622Z,28.70
2023-08-14T04:18:50.677Z,28.70
2023-08-14T04:19:20.673Z,28.72
2023-08-14T04:19:50.782Z,28.73
2023-08-14T04:20:20.895Z,28.75
2023-08-14T04:20:51.016Z,28.73
2023-08-14T04:21:21.120Z,28.76
2023-08-14T04:21:51.261Z,28.75
2023-08-14T04:22:21.517Z,28.75
2023-08-14T04:22:51.323Z,28.75
2023-08-14T04:23:21.435Z,28.76
2023-08-14T04:23:51.541Z,28.77
2023-08-14T04:24:21.661Z,28.76
2023-08-14T04:24:51.783Z,28.77
2023-08-14T04:25:21.890Z,28.79
2023-08-14T04:25:52.005Z,28.77
2023-08-14T04:26:22.121Z,28.76
2023-08-14T04:26:52.238Z,28.77
2023-08-14T04:27:22.230Z,28.77
2023-08-14T04:27:52.466Z,28.79
2023-08-14T04:28:22.450Z,28.79
2023-08-14T04:29:22.542Z,28.79
2023-08-14T04:29:52.633Z,28.79
2023-08-14T04:30:22.593Z,28.83
2023-08-14T04:30:52.728Z,28.82
2023-08-14T04:31:22.760Z,28.82
2023-08-14T04:31:52.850Z,28.79
2023-08-14T04:32:22.870Z,28.82
2023-08-14T04:32:53.016Z,28.82
2023-08-14T04:33:23.010Z,28.83
2023-08-14T04:33:53.132Z,28.82
2023-08-14T04:34:23.247Z,28.86
2023-08-14T04:34:53.360Z,28.85
2023-08-14T04:35:25.798Z,28.80
2023-08-14T04:35:53.490Z,28.82
2023-08-14T04:36:53.561Z,28.85
2023-08-14T04:37:23.590Z,28.82
2023-08-14T04:37:53.700Z,28.85
2023-08-14T04:38:23.812Z,28.83
2023-08-14T04:38:53.808Z,28.83
2023-08-14T04:39:23.930Z,28.86
2023-08-14T04:39:53.927Z,28.85
2023-08-14T04:40:24.053Z,28.83
2023-08-14T04:40:54.037Z,28.83
2023-08-14T04:41:24.150Z,28.85
2023-08-14T04:41:54.259Z,28.85
2023-08-14T04:42:24.368Z,28.83
2023-08-14T04:42:54.626Z,28.85
2023-08-14T04:43:24.609Z,28.85
2023-08-14T04:44:24.658Z,28.87
2023-08-14T04:44:54.777Z,28.85
2023-08-14T04:45:24.772Z,28.86
2023-08-14T04:45:54.897Z,28.82
2023-08-14T04:46:24.932Z,28.80
2023-08-14T04:46:59.990Z,28.77
2023-08-14T04:47:25.048Z,28.67
2023-08-14T04:47:57.390Z,28.62
2023-08-14T04:48:25.243Z,28.49
2023-08-14T04:48:55.349Z,28.35
2023-08-14T04:49:25.476Z,28.22
2023-08-14T04:49:55.486Z,28.08
2023-08-14T04:50:55.541Z,27.70
2023-08-14T04:51:25.648Z,27.53
2023-08-14T04:51:55.760Z,27.36
2023-08-14T04:52:25.868Z,27.19
2023-08-14T04:52:55.965Z,27.01
2023-08-14T04:53:26.039Z,26.84
2023-08-14T04:53:56.133Z,26.70
2023-08-14T04:54:26.219Z,26.53
2023-08-14T04:54:56.294Z,26.37
2023-08-14T04:55:26.381Z,26.27
2023-08-14T04:55:56.450Z,26.17
2023-08-14T04:56:26.520Z,26.05
2023-08-14T04:56:56.606Z,25.96
2023-08-14T04:57:26.670Z,25.84
2023-08-14T04:57:56.779Z,25.76
2023-08-14T04:58:26.837Z,25.64
2023-08-14T04:58:56.924Z,25.57
2023-08-14T04:59:27.016Z,25.42
2023-08-14T04:59:57.087Z,25.40
2023-08-14T05:00:27.215Z,25.34
2023-08-14T05:00:57.180Z,25.26
2023-08-14T05:01:27.259Z,25.21
2023-08-14T05:01:57.385Z,25.16
2023-08-14T05:02:27.504Z,25.11
2023-08-14T05:02:57.492Z,25.07
2023-08-14T05:03:27.472Z,25.03
2023-08-14T05:03:57.581Z,24.99
2023-08-14T05:04:27.748Z,25.00
2023-08-14T05:04:57.805Z,24.97
2023-08-14T05:05:27.804Z,24.91
2023-08-14T05:05:57.927Z,24.87
2023-08-14T05:06:28.035Z,24.89
2023-08-14T05:06:58.148Z,24.91
2023-08-14T05:07:28.269Z,24.93
2023-08-14T05:07:58.405Z,24.93
2023-08-14T05:08:28.409Z,24.90
2023-08-14T05:09:00.439Z,24.90
2023-08-14T05:09:28.488Z,24.93
2023-08-14T05:09:58.614Z,24.91
2023-08-14T05:10:28.733Z,24.89
2023-08-14T05:10:58.819Z,24.87
2023-08-14T05:11:28.945Z,24.86
2023-08-14T05:11:58.935Z,24.83
2023-08-14T05:12:29.071Z,24.79
2023-08-14T05:12:59.312Z,24.78
2023-08-14T05:13:29.149Z,24.70
2023-08-14T05:14:29.293Z,24.65
2023-08-14T05:14:59.309Z,24.62
2023-08-14T05:15:29.298Z,24.58
2023-08-14T05:16:08.207Z,24.54
2023-08-14T05:16:29.479Z,24.49
2023-08-14T05:16:59.464Z,24.48
2023-08-14T05:17:29.603Z,24.47
2023-08-14T05:17:59.644Z,24.42
2023-08-14T05:18:29.622Z,24.42
2023-08-14T05:18:59.737Z,24.40
2023-08-14T05:19:29.855Z,24.40
2023-08-14T05:19:59.967Z,24.35
2023-08-14T05:20:30.086Z,24.35
2023-08-14T05:21:00.214Z,24.34
2023-08-14T05:21:30.312Z,24.32
2023-08-14T05:22:00.439Z,24.31
2023-08-14T05:22:30.428Z,24.34
2023-08-14T05:23:00.547Z,24.32
2023-08-14T05:23:30.654Z,24.32
2023-08-14T05:24:00.770Z,24.37
2023-08-14T05:24:30.905Z,24.38
2023-08-14T05:25:00.939Z,24.40
2023-08-14T05:25:31.080Z,24.41
2023-08-14T05:26:01.086Z,24.47
2023-08-14T05:26:31.440Z,24.48
2023-08-14T05:27:01.304Z,24.49
2023-08-14T05:28:01.378Z,24.55
2023-08-14T05:28:31.593Z,24.58
2023-08-14T05:29:01.642Z,24.63
2023-08-14T05:29:31.640Z,24.65
2023-08-14T05:30:01.747Z,24.66
2023-08-14T05:30:31.863Z,24.68
2023-08-14T05:31:02.001Z,24.70
2023-08-14T05:31:32.124Z,24.70
2023-08-14T05:32:02.189Z,24.70
2023-08-14T05:32:32.331Z,24.68
2023-08-14T05:33:02.370Z,24.69
2023-08-14T05:33:32.338Z,24.70
2023-08-14T05:34:02.457Z,24.69
2023-08-14T05:34:32.453Z,24.69
2023-08-14T05:35:02.461Z,24.70
2023-08-14T05:35:32.464Z,24.73
2023-08-14T05:36:02.465Z,24.78
2023-08-14T05:37:02.530Z,24.89
2023-08-14T05:37:32.635Z,24.93
2023-08-14T05:38:02.762Z,25.00
2023-08-14T05:38:32.863Z,25.05
2023-08-14T05:39:02.875Z,25.11
2023-08-14T05:39:33.018Z,25.17
2023-08-14T05:40:03.008Z,25.23
2023-08-14T05:41:03.102Z,25.34
2023-08-14T05:41:33.085Z,25.40
2023-08-14T05:42:03.204Z,25.42
2023-08-14T05:42:33.316Z,25.48
2023-08-14T05:43:03.437Z,25.54
2023-08-14T05:43:33.539Z,25.60
2023-08-14T05:44:03.677Z,25.65
2023-08-14T05:44:33.762Z,25.67
2023-08-14T05:45:03.898Z,25.71
2023-08-14T05:45:33.921Z,25.74
2023-08-14T05:46:04.029Z,25.78
2023-08-14T05:46:33.934Z,25.82
2023-08-14T05:47:04.046Z,25.86
2023-08-14T05:47:34.187Z,25.88
2023-08-14T05:48:04.348Z,25.92
2023-08-14T05:48:34.369Z,25.92
2023-08-14T05:49:04.480Z,25.96
2023-08-14T05:49:34.598Z,25.96
2023-08-14T05:50:04.708Z,26.00
2023-08-14T05:50:34.823Z,26.02
2023-08-14T05:51:04.823Z,26.03
2023-08-14T05:51:34.928Z,26.10
2023-08-14T05:52:05.037Z,26.10
2023-08-14T05:52:35.188Z,26.15
2023-08-14T05:53:05.183Z,26.12
2023-08-14T05:53:35.175Z,26.15
2023-08-14T05:54:05.277Z,26.17
2023-08-14T05:54:35.369Z,26.20
2023-08-14T05:55:05.447Z,26.19
2023-08-14T05:55:35.548Z,26.22
2023-08-14T05:56:05.625Z,26.23
2023-08-14T05:56:35.699Z,26.23
2023-08-14T05:57:05.788Z,26.23
2023-08-14T05:57:35.949Z,26.26
2023-08-14T05:58:05.911Z,26.33
2023-08-14T05:58:35.993Z,26.36
2023-08-14T05:59:06.113Z,26.39
2023-08-14T05:59:36.591Z,26.43
2023-08-14T06:00:06.165Z,26.46
2023-08-14T06:01:06.336Z,26.57
2023-08-14T06:01:36.311Z,26.63
2023-08-14T06:02:06.421Z,26.70
2023-08-14T06:02:36.510Z,26.77
2023-08-14T06:03:06.606Z,26.81
2023-08-14T06:03:44.237Z,26.87
2023-08-14T06:04:06.630Z,26.88
2023-08-14T06:04:36.709Z,26.95
2023-08-14T06:05:06.702Z,26.98
2023-08-14T06:05:36.707Z,27.08
2023-08-14T06:06:06.819Z,27.11
2023-08-14T06:06:36.950Z,27.16
2023-08-14T06:07:07.002Z,27.22
2023-08-14T06:07:38.138Z,27.23
2023-08-14T06:08:07.175Z,27.29
2023-08-14T06:08:37.289Z,27.32
2023-08-14T06:09:07.340Z,27.36
2023-08-14T06:09:37.330Z,27.39
2023-08-14T06:10:07.533Z,27.42
2023-08-14T06:10:37.489Z,27.46
2023-08-14T06:11:07.607Z,27.49
2023-08-14T06:11:37.762Z,27.53
2023-08-14T06:12:07.750Z,27.59
2023-08-14T06:12:37.962Z,27.59
2023-08-14T06:13:07.964Z,27.63
2023-08-14T06:13:38.073Z,27.63
2023-08-14T06:14:08.070Z,27.70
2023-08-14T06:14:40.324Z,27.70
2023-08-14T06:15:08.211Z,27.73
2023-08-14T06:15:38.316Z,27.74
2023-08-14T06:16:08.452Z,27.79
2023-08-14T06:16:38.487Z,27.81
2023-08-14T06:17:08.527Z,27.81
2023-08-14T06:17:38.529Z,27.84
2023-08-14T06:18:08.595Z,27.83
2023-08-14T06:18:38.671Z,27.85
2023-08-14T06:19:08.662Z,27.87
2023-08-14T06:19:38.827Z,27.88
2023-08-14T06:20:08.855Z,27.91
2023-08-14T06:20:38.891Z,27.92
2023-08-14T06:21:08.888Z,27.95
2023-08-14T06:22:08.997Z,27.98
2023-08-14T06:22:39.018Z,27.98
2023-08-14T06:23:09.075Z,27.97
2023-08-14T06:23:39.048Z,27.98
2023-08-14T06:24:09.179Z,27.95
2023-08-14T06:24:39.235Z,28.01
2023-08-14T06:25:09.235Z,28.00
2023-08-14T06:25:39.324Z,27.98
2023-08-14T06:26:09.308Z,28.01
2023-08-14T06:26:39.467Z,28.03
2023-08-14T06:27:09.494Z,28.03
2023-08-14T06:27:39.516Z,28.05
2023-08-14T06:28:09.522Z,28.05
2023-08-14T06:29:09.668Z,28.07
2023-08-14T06:29:39.652Z,28.08
2023-08-14T06:30:09.845Z,28.11
2023-08-14T06:30:39.773Z,28.12
2023-08-14T06:31:09.942Z,28.12
2023-08-14T06:31:40.028Z,28.12
2023-08-14T06:32:10.042Z,28.11
2023-08-14T06:32:40.260Z,28.12
2023-08-14T06:33:10.202Z,28.14
2023-08-14T06:33:40.230Z,28.15
2023-08-14T06:34:10.222Z,28.14
2023-08-14T06:34:40.290Z,28.18
2023-08-14T06:35:10.318Z,28.15
2023-08-14T06:35:40.305Z,28.18
2023-08-14T06:36:10.421Z,28.18
2023-08-14T06:36:40.553Z,28.19